createdAt,value
2022-12-11T00:00:29.066Z,0.15
2022-12-11T00:02:56.703Z,0.03
2022-12-11T00:05:23.269Z,0.11
2022-12-11T00:07:49.990Z,-0.28
2022-12-11T00:10:16.710Z,-0.28
2022-12-11T00:12:50.611Z,-0.43
2022-12-11T00:15:17.924Z,-0.19
2022-12-11T00:17:46.708Z,-0.09
2022-12-11T00:20:15.423Z,0.05
2022-12-11T00:22:42.358Z,0.14
2022-12-11T00:25:09.876Z,0.09
2022-12-11T00:27:36.690Z,0.26
2022-12-11T00:30:06.468Z,-0.39
2022-12-11T00:32:37.597Z,-0.36
2022-12-11T00:35:04.915Z,-0.18
2022-12-11T00:37:31.553Z,0.03
2022-12-11T00:39:58.231Z,-0.04
2022-12-11T00:42:24.845Z,-0.07
2022-12-11T00:44:52.204Z,-0.05
2022-12-11T00:47:18.803Z,-0.43
2022-12-11T00:49:49.744Z,-0.54
2022-12-11T00:52:18.072Z,-0.47
2022-12-11T00:54:45.813Z,-0.59
2022-12-11T00:57:12.328Z,-0.77
2022-12-11T00:59:41.428Z,-0.82
2022-12-11T01:02:10.167Z,-0.92
2022-12-11T01:04:42.010Z,-0.56
2022-12-11T01:07:08.687Z,-0.79
2022-12-11T01:09:54.024Z,-0.72
2022-12-11T01:12:20.790Z,-0.35
2022-12-11T01:14:47.353Z,-0.31
2022-12-11T01:17:14.732Z,-0.28
2022-12-11T01:19:41.348Z,-0.29
2022-12-11T01:22:08.240Z,-0.36
2022-12-11T01:24:34.873Z,-0.22
2022-12-11T01:27:01.548Z,-0.36
2022-12-11T01:29:30.180Z,-0.56
2022-12-11T01:31:56.827Z,-0.08
2022-12-11T01:34:23.440Z,-0.24
2022-12-11T01:36:52.253Z,-0.43
2022-12-11T01:39:20.708Z,-0.28
2022-12-11T01:41:47.399Z,-1.38
2022-12-11T01:44:16.322Z,-1.07
2022-12-11T01:46:43.638Z,-0.78
2022-12-11T01:49:13.184Z,-0.50
2022-12-11T01:51:49.040Z,-0.43
2022-12-11T01:54:23.708Z,-0.76
2022-12-11T01:56:53.149Z,-0.85
2022-12-11T01:59:26.527Z,-0.58
2022-12-11T02:02:23.777Z,-0.82
2022-12-11T02:04:50.476Z,-0.97
2022-12-11T02:07:17.375Z,-0.96
2022-12-11T02:09:46.750Z,-1.43
2022-12-11T02:12:41.537Z,-0.75
2022-12-11T02:15:27.457Z,-0.39
2022-12-11T02:18:16.199Z,-1.32
2022-12-11T02:20:53.519Z,-0.55
2022-12-11T02:23:57.740Z,-0.35
2022-12-11T02:26:55.221Z,-0.88
2022-12-11T02:29:47.276Z,-1.28
2022-12-11T02:32:19.619Z,-0.75
2022-12-11T02:34:58.510Z,-0.92
2022-12-11T02:37:29.492Z,-1.07
2022-12-11T02:39:57.234Z,-0.99
2022-12-11T02:42:29.671Z,-0.73
2022-12-11T02:44:59.146Z,-1.07
2022-12-11T02:47:28.363Z,-0.81
2022-12-11T02:49:58.270Z,-0.82
2022-12-11T02:52:26.985Z,-0.93
2022-12-11T02:54:58.949Z,-1.09
2022-12-11T02:57:34.988Z,-0.92
2022-12-11T03:00:01.966Z,-1.44
2022-12-11T03:02:28.698Z,-1.35
2022-12-11T03:04:57.292Z,-1.34
2022-12-11T03:07:27.624Z,-1.32
2022-12-11T03:09:54.711Z,-1.46
2022-12-11T03:12:27.628Z,-1.00
2022-12-11T03:14:54.430Z,-1.73
2022-12-11T03:17:31.221Z,-1.09
2022-12-11T03:20:12.584Z,-1.30
2022-12-11T03:22:46.862Z,-1.50
2022-12-11T03:25:20.673Z,-0.88
2022-12-11T03:28:04.406Z,-0.65
2022-12-11T03:30:33.138Z,-1.29
2022-12-11T03:33:26.535Z,-1.57
2022-12-11T03:36:07.074Z,-1.19
2022-12-11T03:38:38.426Z,-0.93
2022-12-11T03:41:07.781Z,-1.33
2022-12-11T03:43:35.597Z,-1.48
2022-12-11T03:46:02.529Z,-1.38
2022-12-11T03:48:34.560Z,-1.04
2022-12-11T03:51:05.123Z,-1.13
2022-12-11T03:53:34.399Z,-1.25
2022-12-11T03:56:06.694Z,-1.22
2022-12-11T03:58:33.465Z,-1.49
2022-12-11T04:01:03.206Z,-1.12
2022-12-11T04:03:32.034Z,-1.19
2022-12-11T04:05:58.656Z,-1.36
2022-12-11T04:08:25.517Z,-1.34
2022-12-11T04:11:11.198Z,-1.22
2022-12-11T04:13:38.912Z,-1.20
2022-12-11T04:16:05.597Z,-0.84
2022-12-11T04:18:53.179Z,-0.96
2022-12-11T04:21:39.862Z,-0.76
2022-12-11T04:24:16.636Z,-0.93
2022-12-11T04:26:47.609Z,-0.71
2022-12-11T04:29:15.486Z,-0.47
2022-12-11T04:31:42.208Z,-0.67
2022-12-11T04:34:09.235Z,-0.75
2022-12-11T04:36:38.467Z,-0.87
2022-12-11T04:39:06.255Z,-0.84
2022-12-11T04:41:33.514Z,-1.10
2022-12-11T04:44:00.168Z,-0.86
2022-12-11T04:46:26.968Z,-1.00
2022-12-11T04:48:57.715Z,-0.87
2022-12-11T04:51:25.126Z,-0.90
2022-12-11T04:53:54.389Z,-1.43
2022-12-11T04:56:21.223Z,-0.90
2022-12-11T04:58:48.435Z,-0.72
2022-12-11T05:01:18.652Z,-0.62
2022-12-11T05:03:45.798Z,-0.70
2022-12-11T05:06:13.163Z,-0.77
2022-12-11T05:08:43.844Z,-0.69
2022-12-11T05:11:13.600Z,-0.49
2022-12-11T05:13:40.715Z,-0.64
2022-12-11T05:16:09.740Z,-0.65
2022-12-11T05:18:36.569Z,-0.76
2022-12-11T05:21:06.753Z,-0.68
2022-12-11T05:23:34.109Z,-0.47
2022-12-11T05:26:04.391Z,-0.51
2022-12-11T05:28:33.939Z,-0.68
2022-12-11T05:31:11.966Z,-0.50
2022-12-11T05:33:38.716Z,-0.98
2022-12-11T05:36:06.756Z,-1.15
2022-12-11T05:38:36.561Z,-0.88
2022-12-11T05:41:06.066Z,-0.82
2022-12-11T05:43:34.684Z,-0.91
2022-12-11T05:46:14.968Z,-0.74
2022-12-11T05:48:42.625Z,-1.14
2022-12-11T05:51:09.947Z,-1.04
2022-12-11T05:53:43.318Z,-0.91
2022-12-11T05:56:15.855Z,-0.84
2022-12-11T05:58:43.993Z,-0.80
2022-12-11T06:01:13.328Z,-0.70
2022-12-11T06:03:40.026Z,-0.61
2022-12-11T06:06:09.737Z,-0.59
2022-12-11T06:08:36.454Z,-0.73
2022-12-11T06:11:04.049Z,-0.94
2022-12-11T06:13:30.596Z,-0.57
2022-12-11T06:16:02.601Z,-1.14
2022-12-11T06:18:29.518Z,-1.22
2022-12-11T06:20:56.140Z,-1.18
2022-12-11T06:23:23.114Z,-1.18
2022-12-11T06:25:49.716Z,-0.97
2022-12-11T06:28:16.377Z,-1.26
2022-12-11T06:30:43.127Z,-1.39
2022-12-11T06:33:10.591Z,-1.55
2022-12-11T06:35:42.059Z,-1.52
2022-12-11T06:38:10.763Z,-1.46
2022-12-11T06:40:38.254Z,-1.45
2022-12-11T06:43:04.906Z,-1.57
2022-12-11T06:45:32.303Z,-1.60
2022-12-11T06:47:59.139Z,-1.23
2022-12-11T06:50:26.090Z,-1.24
2022-12-11T06:52:52.695Z,-1.18
2022-12-11T06:55:19.437Z,-0.99
2022-12-11T06:57:46.130Z,-0.85
2022-12-11T07:00:13.496Z,-1.07
2022-12-11T07:02:40.220Z,-1.21
2022-12-11T07:05:14.544Z,-0.92
2022-12-11T07:07:43.311Z,-0.94
2022-12-11T07:10:10.235Z,-1.03
2022-12-11T07:12:44.784Z,-1.14
2022-12-11T07:15:11.931Z,-1.05
2022-12-11T07:17:50.687Z,-0.46
2022-12-11T07:20:17.456Z,-0.71
2022-12-11T07:22:46.699Z,-0.77
2022-12-11T07:25:14.244Z,-1.14
2022-12-11T07:27:41.751Z,-0.95
2022-12-11T07:30:09.557Z,-0.99
2022-12-11T07:32:36.519Z,-0.60
2022-12-11T07:35:03.989Z,-0.67
2022-12-11T07:37:30.563Z,-0.96
2022-12-11T07:39:57.174Z,-0.88
2022-12-11T07:42:24.381Z,-0.48
2022-12-11T07:44:51.063Z,-0.37
2022-12-11T07:47:19.702Z,-0.72
2022-12-11T07:49:46.340Z,-0.97
2022-12-11T07:52:12.919Z,-1.19
2022-12-11T07:54:42.020Z,-1.28
2022-12-11T07:57:13.857Z,-1.20
2022-12-11T07:59:41.854Z,-1.43
2022-12-11T08:02:12.062Z,-0.82
2022-12-11T08:04:41.367Z,-0.74
2022-12-11T08:07:07.963Z,-0.81
2022-12-11T08:09:36.755Z,-0.85
2022-12-11T08:12:03.616Z,-1.05
2022-12-11T08:14:30.695Z,-1.41
2022-12-11T08:17:00.260Z,-1.89
2022-12-11T08:19:27.981Z,-1.96
2022-12-11T08:21:54.468Z,-1.36
2022-12-11T08:24:21.142Z,-1.34
2022-12-11T08:26:48.382Z,-1.17
2022-12-11T08:29:18.138Z,-1.20
2022-12-11T08:31:46.868Z,-1.49
2022-12-11T08:34:14.190Z,-1.46
2022-12-11T08:36:41.472Z,-1.99
2022-12-11T08:39:08.170Z,-2.20
2022-12-11T08:41:34.903Z,-2.35
2022-12-11T08:44:05.980Z,-2.49
2022-12-11T08:46:32.957Z,-1.84
2022-12-11T08:49:00.297Z,-2.04
2022-12-11T08:51:28.482Z,-1.62
2022-12-11T08:53:56.948Z,-1.43
2022-12-11T08:56:24.341Z,-1.43
2022-12-11T08:58:51.826Z,-1.49
2022-12-11T09:01:23.884Z,-1.52
2022-12-11T09:03:52.121Z,-1.70
2022-12-11T09:06:21.904Z,-1.74
2022-12-11T09:08:52.664Z,-1.37
2022-12-11T09:11:27.004Z,-1.22
2022-12-11T09:13:54.415Z,-1.34
2022-12-11T09:16:26.000Z,-1.62
2022-12-11T09:18:54.892Z,-1.15
2022-12-11T09:21:24.055Z,-1.13
2022-12-11T09:23:54.715Z,-0.97
2022-12-11T09:26:21.829Z,-0.96
2022-12-11T09:28:50.976Z,-1.30
2022-12-11T09:31:28.467Z,-1.32
2022-12-11T09:34:16.838Z,-0.68
2022-12-11T09:36:44.331Z,-0.92
2022-12-11T09:39:12.718Z,-0.97
2022-12-11T09:41:45.158Z,-1.42
2022-12-11T09:44:41.095Z,-0.95
2022-12-11T09:47:27.902Z,-1.26
2022-12-11T09:50:14.792Z,-1.23
2022-12-11T09:52:53.810Z,-0.89
2022-12-11T09:55:59.625Z,-0.56
2022-12-11T09:58:51.379Z,-0.30
2022-12-11T10:01:26.462Z,-0.58
2022-12-11T10:04:13.843Z,-0.29
2022-12-11T10:07:01.109Z,-0.40
2022-12-11T10:09:42.965Z,-0.14
2022-12-11T10:12:20.789Z,-0.72
2022-12-11T10:15:11.091Z,-0.20
2022-12-11T10:17:39.207Z,-0.72
2022-12-11T10:20:18.440Z,-0.15
2022-12-11T10:22:45.905Z,-0.23
2022-12-11T10:25:34.328Z,-0.17
2022-12-11T10:28:12.292Z,-0.08
2022-12-11T10:30:45.637Z,-0.27
2022-12-11T10:33:22.407Z,0.21
2022-12-11T10:35:52.819Z,0.44
2022-12-11T10:38:31.979Z,1.14
2022-12-11T10:41:02.410Z,1.97
2022-12-11T10:43:44.075Z,3.03
2022-12-11T10:46:31.392Z,2.36
2022-12-11T10:49:01.873Z,3.39
2022-12-11T10:51:31.386Z,4.22
2022-12-11T10:54:08.723Z,5.45
2022-12-11T10:56:40.167Z,5.94
2022-12-11T10:59:07.078Z,5.36
2022-12-11T11:01:36.393Z,5.57
2022-12-11T11:04:15.182Z,4.48
2022-12-11T11:06:41.930Z,4.72
2022-12-11T11:09:30.078Z,5.14
2022-12-11T11:12:00.846Z,5.14
2022-12-11T11:14:31.241Z,5.93
2022-12-11T11:17:03.187Z,5.19
2022-12-11T11:19:35.627Z,3.87
2022-12-11T11:22:07.458Z,3.88
2022-12-11T11:24:41.765Z,3.86
2022-12-11T11:27:23.842Z,4.40
2022-12-11T11:30:05.530Z,5.83
2022-12-11T11:32:42.553Z,6.03
2022-12-11T11:35:19.132Z,5.63
2022-12-11T11:37:54.149Z,4.79
2022-12-11T11:40:36.466Z,5.14
2022-12-11T11:43:22.638Z,4.21
2022-12-11T11:45:57.763Z,3.99
2022-12-11T11:48:45.960Z,3.61
2022-12-11T11:51:16.524Z,3.40
2022-12-11T11:53:49.743Z,3.20
2022-12-11T11:56:24.199Z,2.76
2022-12-11T11:59:19.861Z,2.45
2022-12-11T12:01:46.735Z,2.11
2022-12-11T12:04:14.057Z,2.34
2022-12-11T12:07:18.403Z,2.29
2022-12-11T12:10:10.885Z,1.46
2022-12-11T12:12:53.336Z,1.21
2022-12-11T12:15:44.378Z,1.51
2022-12-11T12:18:26.399Z,1.05
2022-12-11T12:21:20.829Z,1.02
2022-12-11T12:23:56.491Z,1.05
2022-12-11T12:26:35.898Z,1.39
2022-12-11T12:29:29.005Z,1.38
2022-12-11T12:32:25.495Z,1.61
2022-12-11T12:35:10.202Z,1.46
2022-12-11T12:37:56.008Z,1.54
2022-12-11T12:41:07.322Z,1.64
2022-12-11T12:43:36.733Z,1.30
2022-12-11T12:46:29.200Z,0.82
2022-12-11T12:48:58.539Z,0.80
2022-12-11T12:51:27.115Z,1.56
2022-12-11T12:53:58.564Z,1.55
2022-12-11T12:56:27.937Z,1.94
2022-12-11T12:58:54.631Z,1.91
2022-12-11T13:01:24.151Z,2.79
2022-12-11T13:04:04.103Z,2.84
2022-12-11T13:06:36.792Z,1.78
2022-12-11T13:09:26.491Z,2.11
2022-12-11T13:11:57.923Z,1.90
2022-12-11T13:14:30.245Z,1.57
2022-12-11T13:17:20.143Z,1.91
2022-12-11T13:19:49.160Z,1.72
2022-12-11T13:22:15.686Z,1.35
2022-12-11T13:25:01.957Z,1.47
2022-12-11T13:27:34.742Z,1.24
2022-12-11T13:30:05.877Z,0.76
2022-12-11T13:32:33.656Z,0.60
2022-12-11T13:35:06.035Z,0.80
2022-12-11T13:37:38.571Z,0.23
2022-12-11T13:40:14.706Z,0.90
2022-12-11T13:42:50.177Z,1.81
2022-12-11T13:45:42.746Z,2.07
2022-12-11T13:48:27.268Z,2.63
2022-12-11T13:50:55.167Z,2.29
2022-12-11T13:53:22.486Z,2.39
2022-12-11T13:56:08.145Z,2.60
2022-12-11T13:58:38.174Z,1.54
2022-12-11T14:01:41.072Z,1.72
2022-12-11T14:04:17.799Z,2.22
2022-12-11T14:06:45.019Z,1.79
2022-12-11T14:09:18.987Z,2.16
2022-12-11T14:11:50.909Z,1.57
2022-12-11T14:14:43.650Z,1.18
2022-12-11T14:17:15.291Z,1.28
2022-12-11T14:19:49.981Z,1.51
2022-12-11T14:22:20.057Z,1.43
2022-12-11T14:24:52.729Z,1.42
2022-12-11T14:27:20.822Z,1.13
2022-12-11T14:29:48.595Z,1.08
2022-12-11T14:32:25.094Z,0.80
2022-12-11T14:34:55.947Z,0.38
2022-12-11T14:37:23.836Z,0.49
2022-12-11T14:40:14.470Z,1.31
2022-12-11T14:42:51.141Z,1.12
2022-12-11T14:45:31.432Z,0.94
2022-12-11T14:48:02.231Z,0.43
2022-12-11T14:50:39.369Z,0.24
2022-12-11T14:53:13.750Z,0.48
2022-12-11T14:55:41.213Z,0.68
2022-12-11T14:58:17.758Z,0.68
2022-12-11T15:00:44.432Z,0.54
2022-12-11T15:03:17.513Z,0.66
2022-12-11T15:05:55.897Z,1.06
2022-12-11T15:08:27.173Z,0.98
2022-12-11T15:11:04.221Z,0.88
2022-12-11T15:13:33.004Z,0.22
2022-12-11T15:16:07.356Z,0.56
2022-12-11T15:18:36.858Z,0.52
2022-12-11T15:21:10.041Z,0.42
2022-12-11T15:23:57.615Z,0.67
2022-12-11T15:26:37.665Z,0.72
2022-12-11T15:29:07.271Z,0.67
2022-12-11T15:31:35.248Z,0.67
2022-12-11T15:34:02.045Z,0.26
2022-12-11T15:36:37.394Z,0.33
2022-12-11T15:39:08.685Z,0.75
2022-12-11T15:41:35.737Z,0.43
2022-12-11T15:44:04.228Z,0.51
2022-12-11T15:46:38.662Z,0.57
2022-12-11T15:49:12.659Z,0.57
2022-12-11T15:51:42.900Z,0.22
2022-12-11T15:54:10.439Z,-0.02
2022-12-11T15:56:37.020Z,-0.35
2022-12-11T15:59:06.845Z,0.06
2022-12-11T16:01:34.778Z,-0.15
2022-12-11T16:04:04.874Z,-0.67
2022-12-11T16:06:33.195Z,-0.47
2022-12-11T16:08:59.657Z,-0.15
2022-12-11T16:11:26.274Z,-0.65
2022-12-11T16:13:52.893Z,-0.87
2022-12-11T16:16:19.543Z,-1.01
2022-12-11T16:18:46.121Z,-1.02
2022-12-11T16:21:21.347Z,-0.89
2022-12-11T16:23:48.633Z,-1.06
2022-12-11T16:26:15.807Z,-0.97
2022-12-11T16:28:43.189Z,-0.43
2022-12-11T16:31:11.989Z,-0.38
2022-12-11T16:33:41.275Z,-0.39
2022-12-11T16:36:16.316Z,0.03
2022-12-11T16:38:54.235Z,0.10
2022-12-11T16:41:22.905Z,0.11
2022-12-11T16:43:49.846Z,-0.21
2022-12-11T16:46:21.447Z,-0.30
2022-12-11T16:48:48.395Z,-0.53
2022-12-11T16:51:17.612Z,-0.40
2022-12-11T16:53:44.488Z,-0.31
2022-12-11T16:56:18.180Z,-0.46
2022-12-11T16:58:46.840Z,-0.51
2022-12-11T17:01:15.552Z,-0.51
2022-12-11T17:03:44.476Z,-0.66
2022-12-11T17:06:14.415Z,-0.46
2022-12-11T17:08:42.802Z,-0.23
2022-12-11T17:11:21.750Z,0.17
2022-12-11T17:13:54.031Z,0.07
2022-12-11T17:16:22.290Z,0.08
2022-12-11T17:18:48.873Z,0.16
2022-12-11T17:21:17.704Z,-0.05
2022-12-11T17:23:44.551Z,0.05
2022-12-11T17:26:11.795Z,0.16
2022-12-11T17:28:39.800Z,0.37
2022-12-11T17:31:14.540Z,0.67
2022-12-11T17:33:41.474Z,0.21
2022-12-11T17:36:08.605Z,0.07
2022-12-11T17:38:35.891Z,-0.07
2022-12-11T17:41:08.213Z,0.21
2022-12-11T17:43:34.894Z,0.47
2022-12-11T17:46:02.122Z,0.32
2022-12-11T17:48:30.950Z,0.49
2022-12-11T17:50:58.459Z,0.45
2022-12-11T17:53:26.395Z,0.44
2022-12-11T17:55:53.203Z,0.27
2022-12-11T17:58:22.919Z,0.47
2022-12-11T18:00:53.227Z,0.48
2022-12-11T18:03:20.822Z,0.40
2022-12-11T18:05:55.160Z,0.49
2022-12-11T18:08:25.998Z,-0.03
2022-12-11T18:10:53.926Z,-0.51
2022-12-11T18:13:21.930Z,-0.20
2022-12-11T18:16:03.305Z,-0.12
2022-12-11T18:18:30.727Z,-0.31
2022-12-11T18:20:57.354Z,-0.20
2022-12-11T18:23:24.187Z,-0.39
2022-12-11T18:25:52.399Z,-0.26
2022-12-11T18:28:19.305Z,-0.27
2022-12-11T18:30:46.503Z,-0.47
2022-12-11T18:33:13.759Z,-0.56
2022-12-11T18:35:41.296Z,-0.44
2022-12-11T18:38:08.144Z,-0.62
2022-12-11T18:40:34.829Z,-0.81
2022-12-11T18:43:01.494Z,-1.66
2022-12-11T18:45:28.139Z,-1.46
2022-12-11T18:47:56.539Z,-1.38
2022-12-11T18:50:23.160Z,-1.62
2022-12-11T18:52:53.947Z,-1.52
2022-12-11T18:55:26.916Z,-1.80
2022-12-11T18:57:53.659Z,-1.65
2022-12-11T19:00:22.137Z,-1.11
2022-12-11T19:02:52.283Z,-0.99
2022-12-11T19:05:18.984Z,-1.41
2022-12-11T19:07:45.645Z,-1.86
2022-12-11T19:10:12.443Z,-1.80
2022-12-11T19:12:39.083Z,-1.74
2022-12-11T19:15:08.290Z,-1.31
2022-12-11T19:17:34.919Z,-0.94
2022-12-11T19:20:13.584Z,-0.73
2022-12-11T19:22:48.233Z,-0.60
2022-12-11T19:25:15.497Z,-0.49
2022-12-11T19:27:42.162Z,-0.65
2022-12-11T19:30:09.438Z,-0.56
2022-12-11T19:32:36.512Z,-0.49
2022-12-11T19:35:03.969Z,-0.70
2022-12-11T19:37:30.625Z,-0.80
2022-12-11T19:39:57.188Z,-0.60
2022-12-11T19:42:23.808Z,-0.57
2022-12-11T19:44:50.502Z,-0.60
2022-12-11T19:47:20.171Z,-0.48
2022-12-11T19:49:48.655Z,-0.75
2022-12-11T19:52:15.352Z,-0.74
2022-12-11T19:54:44.714Z,-0.60
2022-12-11T19:57:11.365Z,-0.80
2022-12-11T19:59:37.957Z,-1.06
2022-12-11T20:02:05.127Z,-1.67
2022-12-11T20:04:31.845Z,-1.67
2022-12-11T20:06:58.517Z,-1.56
2022-12-11T20:09:25.272Z,-1.28
2022-12-11T20:11:52.002Z,-1.15
2022-12-11T20:14:22.978Z,-1.36
2022-12-11T20:19:37.168Z,-1.08
2022-12-11T20:22:06.901Z,-1.15
2022-12-11T20:24:33.712Z,-1.44
2022-12-11T20:27:00.470Z,-1.67
2022-12-11T20:29:28.090Z,-1.61
2022-12-11T20:31:54.778Z,-2.36
2022-12-11T20:34:21.487Z,-2.39
2022-12-11T20:36:50.596Z,-2.06
2022-12-11T20:39:17.290Z,-1.77
2022-12-11T20:41:52.791Z,-1.46
2022-12-11T20:44:22.680Z,-1.53
2022-12-11T20:46:50.746Z,-1.31
2022-12-11T20:49:17.347Z,-1.58
2022-12-11T20:51:44.078Z,-1.62
2022-12-11T20:54:10.736Z,-1.70
2022-12-11T20:56:38.071Z,-1.69
2022-12-11T20:59:04.807Z,-1.61
2022-12-11T21:01:33.084Z,-1.42
2022-12-11T21:04:00.076Z,-1.60
2022-12-11T21:06:38.711Z,-1.39
2022-12-11T21:09:09.508Z,-1.48
2022-12-11T21:11:36.151Z,-1.64
2022-12-11T21:14:03.911Z,-1.84
2022-12-11T21:16:30.746Z,-1.92
2022-12-11T21:18:57.999Z,-2.21
2022-12-11T21:21:27.802Z,-1.75
2022-12-11T21:23:54.691Z,-1.63
2022-12-11T21:26:21.384Z,-1.54
2022-12-11T21:28:48.130Z,-1.54
2022-12-11T21:31:17.276Z,-1.34
2022-12-11T21:33:44.421Z,-1.72
2022-12-11T21:36:12.705Z,-1.75
2022-12-11T21:38:40.798Z,-1.81
2022-12-11T21:41:13.741Z,-1.56
2022-12-11T21:44:03.261Z,-1.59
2022-12-11T21:46:29.159Z,-1.34
2022-12-11T21:48:55.996Z,-1.53
2022-12-11T21:51:37.179Z,-1.03
2022-12-11T21:54:06.426Z,-1.47
2022-12-11T21:56:33.262Z,-1.14
2022-12-11T21:59:03.266Z,-1.03
2022-12-11T22:01:42.901Z,-1.26
2022-12-11T22:04:13.368Z,-1.19
2022-12-11T22:06:42.880Z,-1.14
2022-12-11T22:09:10.478Z,-1.38
2022-12-11T22:11:42.066Z,-0.84
2022-12-11T22:14:17.912Z,-1.03
2022-12-11T22:16:47.583Z,-1.05
2022-12-11T22:19:14.256Z,-1.18
2022-12-11T22:21:41.375Z,-1.42
2022-12-11T22:24:08.340Z,-1.34
2022-12-11T22:26:35.035Z,-1.19
2022-12-11T22:29:03.712Z,-1.22
2022-12-11T22:31:30.366Z,-1.20
2022-12-11T22:33:57.075Z,-1.18
2022-12-11T22:36:26.167Z,-1.15
2022-12-11T22:38:53.082Z,-1.20
2022-12-11T22:41:31.551Z,-0.92
2022-12-11T22:43:58.722Z,-1.10
2022-12-11T22:46:28.716Z,-1.22
2022-12-11T22:48:55.874Z,-1.34
2022-12-11T22:51:22.979Z,-1.22
2022-12-11T22:53:49.584Z,-1.42
2022-12-11T22:56:16.358Z,-1.51
2022-12-11T22:58:51.918Z,-1.64
2022-12-11T23:01:21.720Z,-1.48
2022-12-11T23:03:48.965Z,-1.33
2022-12-11T23:06:17.605Z,-1.21
2022-12-11T23:08:44.606Z,-1.18
2022-12-11T23:11:24.095Z,-1.23
2022-12-11T23:13:50.917Z,-1.94
2022-12-11T23:16:25.234Z,-2.08
2022-12-11T23:18:52.280Z,-2.23
2022-12-11T23:21:18.963Z,-2.18
2022-12-11T23:23:46.365Z,-1.94
2022-12-11T23:26:15.183Z,-2.14
2022-12-11T23:28:42.247Z,-1.96
2022-12-11T23:31:11.682Z,-2.04
2022-12-11T23:33:38.418Z,-2.01
2022-12-11T23:36:05.408Z,-1.87
2022-12-11T23:38:32.455Z,-1.48
2022-12-11T23:41:01.812Z,-1.38
2022-12-11T23:43:28.424Z,-1.37
2022-12-11T23:45:56.017Z,-1.21
2022-12-11T23:48:22.741Z,-1.24
2022-12-11T23:50:49.462Z,-1.27
2022-12-11T23:53:16.198Z,-1.17
2022-12-11T23:55:45.135Z,-0.95
2022-12-11T23:58:12.027Z,-0.97
